Mount Hood Parkdale, Oregon
Current Conditions -  °F | °C
As of 3:39 PM on Wednesday 22 Oct 2014 (Local Time) from K4S2 Reporting Station
Moderate Rain Moderate Rain  
Wind Chill: 55°   Ceiling: 6500
Heat Index: 55°   Visibility: 10mi
Dew Point: 54°   Wind: 0mph
Humidity: 94%   Direction: NA
Pressure: 29.72"   Gusts: NA
Location:  45.52°N, 121.59°W
Report Text: K4S2 222239Z AUTO 00000KT 10SM RA SCT010 BKN065 OVC075 13/12 A2972 RMK AO2 P0002 SLP079 T01300120
Loading
Personal Weather Stations






























Interactive Weather Map
Tropical Storm Tracking
New forecast layout! Learn more

10-Day Weather Forecast

Advertisements
Track Severe Weather on mobile